Terminal Aerodrome Forecast
Issued by NWS Charleston, WV

Current Version | Previous Version | Graphics & Text | Print | Product List | Glossary On
Versions: 1 2 3 4 5 6 7 8 9 10 11 12 13 14 15 16 17 18 19 20 21 22 23 24 25 26
000
FTUS41 KRLX 150822 AAA
TAFHTS
TAF AMD
KHTS 150822Z 1508/1606 20006KT P6SM FEW250
     FM151400 21010G22KT P6SM SCT015
     FM151700 21010G21KT P6SM BKN015
     FM151800 21010G20KT P6SM BKN025
     FM152100 22010G17KT 4SM SHRA BR OVC025
     FM152300 28010G22KT P6SM SHRA BKN015
     FM160200 32009G16KT P6SM BKN025
     FM160400 33008KT P6SM BKN025=

USA.gov is the U.S. government's official web portal to all federal, state and local government web resources and services.